Time;durP1;ratioP1;P1;durP2;ratioP2;P2;SDS_P1;SDS_P2;PMS_P1;PMS_P2;Temp;Humidity;BMP_temperature;BMP_pressure;BME280_temperature;BME280_humidity;BME280_pressure;Samples;Min_cycle;Max_cycle;Signal;HPM_P1;HPM_P2
2022/01/10 00:03:42;;;;;;;14.98;2.95;;;;;;;4.34;100.00;100689.94;10138550;28;20094;-70
2022/01/10 00:08:40;;;;;;;17.38;3.35;;;;;;;4.18;100.00;100689.22;10100578;28;20086;-70
2022/01/10 00:13:36;;;;;;;10.88;3.33;;;;;;;4.17;100.00;100698.41;10111147;28;20101;-69
2022/01/10 00:18:33;;;;;;;22.23;3.47;;;;;;;4.12;100.00;100706.53;10095813;28;20075;-69
2022/01/10 00:23:29;;;;;;;21.65;3.25;;;;;;;4.11;100.00;100715.75;10139425;28;20071;-69
2022/01/10 00:28:26;;;;;;;14.73;2.47;;;;;;;4.04;100.00;100739.56;10097843;28;20151;-69
2022/01/10 00:33:23;;;;;;;21.75;3.42;;;;;;;4.02;100.00;100733.63;10120567;28;20055;-69
2022/01/10 00:38:20;;;;;;;19.73;3.17;;;;;;;4.08;100.00;100743.34;10104011;28;20505;-70
2022/01/10 00:43:19;;;;;;;23.17;4.53;;;;;;;4.02;100.00;100749.88;10140618;28;20082;-68
2022/01/10 00:48:16;;;;;;;16.83;3.33;;;;;;;4.10;100.00;100757.41;10098279;28;20054;-69
2022/01/10 00:53:12;;;;;;;14.93;3.10;;;;;;;4.09;100.00;100766.63;10102868;28;20051;-68
2022/01/10 00:58:09;;;;;;;22.42;3.55;;;;;;;4.09;100.00;100777.47;10109421;28;20101;-69
2022/01/10 01:03:05;;;;;;;13.13;2.92;;;;;;;4.17;100.00;100795.84;10113920;28;20051;-69
2022/01/10 01:08:06;;;;;;;21.33;4.35;;;;;;;4.29;100.00;100809.88;10093951;28;20059;-70
2022/01/10 01:13:49;;;;;;;19.27;3.58;;;;;;;4.33;100.00;100826.41;10123642;28;20146;-69
2022/01/10 01:28:48;;;;;;;19.15;3.97;;;;;;;4.40;100.00;100864.81;10110949;28;20419;-70
2022/01/10 01:33:45;;;;;;;17.80;3.47;;;;;;;4.41;100.00;100872.69;10107098;28;20139;-66
2022/01/10 01:38:42;;;;;;;26.90;5.15;;;;;;;4.45;100.00;100886.47;10122770;28;20128;-66
2022/01/10 01:43:40;;;;;;;17.08;4.45;;;;;;;4.38;100.00;100894.88;10141863;28;20479;-67
2022/01/10 01:48:37;;;;;;;18.65;4.45;;;;;;;4.32;100.00;100906.81;10091063;28;20051;-66
2022/01/10 01:53:33;;;;;;;17.60;4.40;;;;;;;4.27;100.00;100920.34;10123720;28;20051;-68
2022/01/10 01:58:33;;;;;;;11.75;3.40;;;;;;;4.23;100.00;100930.06;10130345;28;20051;-70
2022/01/10 02:03:33;;;;;;;21.20;4.60;;;;;;;4.19;100.00;100931.69;10107060;28;20047;-67
2022/01/10 02:08:29;;;;;;;19.45;5.22;;;;;;;4.28;100.00;100940.91;10094196;28;20122;-67
2022/01/10 02:13:28;;;;;;;18.90;4.43;;;;;;;4.30;100.00;100954.19;10125714;28;20519;-68
2022/01/10 02:18:24;;;;;;;20.08;4.80;;;;;;;4.29;100.00;100961.47;10120927;28;20479;-67
2022/01/10 02:23:21;;;;;;;11.88;4.00;;;;;;;4.31;100.00;100970.13;10132614;28;20094;-68
2022/01/10 02:28:17;;;;;;;16.83;4.80;;;;;;;4.27;100.00;100977.19;10107626;28;20054;-69
2022/01/10 02:33:14;;;;;;;15.35;3.88;;;;;;;4.30;100.00;100984.75;10121458;28;20109;-70
2022/01/10 02:38:10;;;;;;;16.38;4.72;;;;;;;4.33;100.00;100995.03;10109760;28;20498;-70
2022/01/10 02:43:08;;;;;;;15.07;4.22;;;;;;;4.34;100.00;101007.50;10108367;28;20077;-70
2022/01/10 02:48:04;;;;;;;21.92;4.88;;;;;;;4.33;100.00;101011.28;10084233;28;20047;-70
2022/01/10 02:53:01;;;;;;;29.25;5.63;;;;;;;4.34;100.00;101023.75;10086475;28;20395;-69
2022/01/10 02:57:58;;;;;;;18.90;4.63;;;;;;;4.42;100.00;101031.31;10095611;28;20574;-66
2022/01/10 03:02:55;;;;;;;18.77;5.28;;;;;;;4.47;100.00;101054.09;10111381;28;20078;-66
2022/01/10 03:07:55;;;;;;;14.52;6.10;;;;;;;4.38;100.00;101057.31;10096848;28;20046;-66
2022/01/10 03:12:52;;;;;;;18.35;6.10;;;;;;;4.49;100.00;101068.19;10102429;28;20046;-66
2022/01/10 03:17:48;;;;;;;19.77;5.65;;;;;;;4.49;100.00;101079.00;10093896;28;20101;-66
2022/01/10 03:22:45;;;;;;;22.63;6.00;;;;;;;4.50;100.00;101091.44;10082965;28;20046;-66
2022/01/10 03:27:41;;;;;;;22.15;6.90;;;;;;;4.46;100.00;101101.22;10099489;28;20039;-67
2022/01/10 03:32:38;;;;;;;21.23;6.60;;;;;;;4.49;100.00;101106.88;10103706;28;20137;-67
2022/01/10 03:37:35;;;;;;;25.30;11.27;;;;;;;4.54;100.00;101125.03;10101049;28;20047;-67
2022/01/10 03:42:31;;;;;;;32.88;10.60;;;;;;;4.29;100.00;101123.88;10121953;28;20078;-67
2022/01/10 03:47:28;;;;;;;37.35;10.93;;;;;;;4.32;100.00;101134.19;10095387;28;20079;-68
2022/01/10 03:52:25;;;;;;;29.70;10.27;;;;;;;4.30;100.00;101136.34;10114730;28;20050;-69
2022/01/10 03:57:22;;;;;;;31.98;11.38;;;;;;;4.23;100.00;101152.03;10100483;28;20143;-66
2022/01/10 04:02:18;;;;;;;30.50;9.73;;;;;;;4.13;100.00;101162.78;10132780;28;20051;-67
2022/01/10 04:07:17;;;;;;;26.63;10.23;;;;;;;4.00;100.00;101173.03;10101543;28;20085;-66
2022/01/10 04:12:13;;;;;;;22.42;9.07;;;;;;;3.97;100.00;101187.09;10146006;28;20043;-68
2022/01/10 04:17:10;;;;;;;22.45;8.70;;;;;;;4.02;100.00;101188.19;10099330;28;20043;-68
2022/01/10 04:22:07;;;;;;;17.63;8.50;;;;;;;4.00;100.00;101197.38;10109923;28;20066;-68
2022/01/10 04:27:03;;;;;;;15.13;7.80;;;;;;;4.05;100.00;101209.31;10093523;28;20042;-66
2022/01/10 04:32:00;;;;;;;8.65;6.43;;;;;;;4.04;100.00;101222.03;10121273;28;20462;-66
2022/01/10 04:36:57;;;;;;;8.40;5.70;;;;;;;3.92;100.00;101238.47;10093496;28;20496;-67
2022/01/10 04:41:53;;;;;;;10.55;5.43;;;;;;;3.75;100.00;101251.31;10128902;28;20133;-66
2022/01/10 04:46:51;;;;;;;9.68;5.60;;;;;;;3.75;100.00;101264.84;10094941;28;20134;-68
2022/01/10 04:51:49;;;;;;;8.75;6.18;;;;;;;3.80;100.00;101278.41;10106721;28;20047;-69
2022/01/10 04:56:46;;;;;;;9.27;6.85;;;;;;;3.85;100.00;101283.84;10103971;28;20042;-69
2022/01/10 05:01:42;;;;;;;9.82;7.10;;;;;;;3.93;100.00;101294.19;10121158;28;20105;-67
2022/01/10 05:06:39;;;;;;;9.80;7.25;;;;;;;3.91;100.00;101307.16;10114574;28;20105;-68
2022/01/10 05:11:38;;;;;;;11.27;7.75;;;;;;;3.94;100.00;101314.75;10116018;28;20075;-69
2022/01/10 05:16:35;;;;;;;11.68;8.00;;;;;;;3.92;100.00;101324.19;10094059;28;20038;-69
2022/01/10 05:21:32;;;;;;;11.07;7.50;;;;;;;3.95;100.00;101335.34;10093274;28;20059;-68
2022/01/10 05:26:28;;;;;;;12.00;8.90;;;;;;;3.90;100.00;101343.41;10095263;28;20043;-69
2022/01/10 05:31:25;;;;;;;12.90;9.02;;;;;;;3.86;100.00;101347.69;10101946;28;20051;-66
2022/01/10 05:36:23;;;;;;;13.73;10.32;;;;;;;3.80;100.00;101364.94;10099350;28;20079;-68
2022/01/10 05:41:22;;;;;;;14.43;11.07;;;;;;;3.66;100.00;101374.56;10101419;28;20526;-69
2022/01/10 05:46:22;;;;;;;14.53;10.27;;;;;;;3.80;100.00;101392.81;10087632;28;20059;-68
2022/01/10 05:51:20;;;;;;;14.45;10.63;;;;;;;3.91;100.00;101398.34;10117580;28;20137;-68
2022/01/10 05:56:16;;;;;;;17.73;12.73;;;;;;;3.94;100.00;101414.84;10119193;28;20098;-71
2022/01/10 06:01:15;;;;;;;14.68;10.95;;;;;;;3.93;100.00;101426.78;10095956;28;20086;-70
2022/01/10 06:06:12;;;;;;;13.82;9.90;;;;;;;3.94;100.00;101441.91;10080546;28;20500;-69
2022/01/10 06:11:08;;;;;;;15.57;10.55;;;;;;;3.91;100.00;101464.09;10080319;28;20082;-69
2022/01/10 06:16:05;;;;;;;16.80;12.32;;;;;;;3.97;100.00;101468.47;10086519;28;20167;-69
2022/01/10 06:21:01;;;;;;;17.52;12.27;;;;;;;3.95;100.00;101481.44;10084405;28;20081;-69
2022/01/10 06:25:58;;;;;;;17.17;11.98;;;;;;;3.79;100.00;101483.16;10095263;28;20133;-70
2022/01/10 06:30:54;;;;;;;16.98;12.27;;;;;;;3.75;100.00;101492.03;10110172;28;20054;-69
2022/01/10 06:35:51;;;;;;;16.10;11.30;;;;;;;3.80;100.00;101509.13;10102752;28;20050;-69
2022/01/10 06:40:47;;;;;;;18.08;12.48;;;;;;;3.81;100.00;101520.78;10103732;28;20066;-70
2022/01/10 06:45:44;;;;;;;20.90;13.95;;;;;;;3.82;100.00;101533.25;10082267;28;20504;-69
2022/01/10 06:50:42;;;;;;;19.88;13.80;;;;;;;3.77;100.00;101549.41;10081854;28;20093;-70
2022/01/10 06:55:38;;;;;;;20.42;14.13;;;;;;;3.68;100.00;101556.34;10092238;28;20058;-69
2022/01/10 07:00:36;;;;;;;20.70;14.32;;;;;;;3.77;100.00;101571.06;10099498;28;20065;-69
2022/01/10 07:05:33;;;;;;;21.15;14.00;;;;;;;3.79;100.00;101590.56;10084519;28;20047;-70
2022/01/10 07:10:29;;;;;;;22.58;15.65;;;;;;;3.83;100.00;101599.81;10086402;28;20043;-71
2022/01/10 07:15:26;;;;;;;22.50;14.38;;;;;;;3.76;100.00;101607.28;10105094;28;20515;-70
2022/01/10 07:20:23;;;;;;;24.25;15.48;;;;;;;3.82;100.00;101627.13;10090559;28;20127;-70
2022/01/10 07:25:20;;;;;;;22.33;14.77;;;;;;;3.89;100.00;101638.56;10082217;28;20082;-70
2022/01/10 07:30:16;;;;;;;25.05;15.85;;;;;;;3.90;100.00;101651.84;10081285;28;20102;-70
2022/01/10 07:35:13;;;;;;;22.08;14.90;;;;;;;3.91;100.00;101658.06;10099252;28;20113;-67
2022/01/10 07:40:10;;;;;;;24.17;16.10;;;;;;;3.92;100.00;101676.78;10087582;28;20164;-67
2022/01/10 07:45:07;;;;;;;26.23;16.92;;;;;;;3.88;100.00;101691.88;10110995;28;20842;-67
2022/01/10 07:50:05;;;;;;;24.83;15.50;;;;;;;3.84;100.00;101696.13;10114236;28;20081;-71
2022/01/10 07:55:02;;;;;;;22.58;15.85;;;;;;;3.86;100.00;101715.66;10084750;28;20094;-71
2022/01/10 07:59:59;;;;;;;24.77;16.80;;;;;;;3.89;100.00;101720.53;10089200;28;20118;-71
2022/01/10 08:04:55;;;;;;;26.85;15.32;;;;;;;3.70;100.00;101727.31;10085387;28;20073;-71
2022/01/10 08:09:52;;;;;;;26.80;17.38;;;;;;;3.89;100.00;101747.59;10084748;28;20101;-70
2022/01/10 08:14:48;;;;;;;27.42;18.10;;;;;;;3.80;100.00;101755.31;10088752;28;20094;-70
2022/01/10 08:19:45;;;;;;;25.45;16.98;;;;;;;3.87;100.00;101765.16;10080640;28;20538;-71
2022/01/10 08:24:42;;;;;;;24.95;15.68;;;;;;;3.91;100.00;101771.72;10088267;28;20053;-73
2022/01/10 08:29:39;;;;;;;26.77;16.50;;;;;;;4.05;100.00;101783.03;10090131;28;20078;-71
2022/01/10 08:34:36;;;;;;;31.17;17.17;;;;;;;4.05;100.00;101793.84;10080441;28;20086;-70
2022/01/10 08:39:33;;;;;;;33.40;19.77;;;;;;;4.08;100.00;101809.59;10094372;28;20050;-71
2022/01/10 08:44:30;;;;;;;29.42;18.00;;;;;;;4.08;100.00;101815.00;10090074;28;20055;-70
2022/01/10 08:49:26;;;;;;;29.70;17.92;;;;;;;4.06;100.00;101822.53;10092987;28;20047;-71
2022/01/10 08:54:23;;;;;;;30.75;20.05;;;;;;;4.10;100.00;101829.09;10095900;28;20051;-71
2022/01/10 08:59:20;;;;;;;30.15;19.33;;;;;;;4.10;100.00;101839.94;10109948;28;20046;-70
2022/01/10 09:04:17;;;;;;;30.08;18.95;;;;;;;4.17;100.00;101843.28;10112657;28;20082;-70
2022/01/10 09:09:13;;;;;;;31.00;18.23;;;;;;;4.07;100.00;101856.66;10095149;28;20118;-71
2022/01/10 09:14:11;;;;;;;31.98;20.13;;;;;;;4.17;100.00;101871.16;10094780;28;20101;-71
2022/01/10 09:19:08;;;;;;;36.45;20.70;;;;;;;4.27;100.00;101884.06;10088376;28;20132;-70
2022/01/10 09:24:05;;;;;;;39.65;22.42;;;;;;;4.31;100.00;101890.59;10100411;28;20051;-71
2022/01/10 09:29:02;;;;;;;38.42;22.00;;;;;;;4.38;100.00;101893.97;10091540;28;20075;-73
2022/01/10 09:33:59;;;;;;;43.03;22.65;;;;;;;4.41;100.00;101890.78;10089773;28;20070;-71
2022/01/10 09:38:57;;;;;;;42.33;22.77;;;;;;;4.52;100.00;101896.34;10107696;28;20074;-72
2022/01/10 09:43:56;;;;;;;41.92;23.17;;;;;;;4.55;100.00;101901.25;10095858;28;20405;-71
2022/01/10 09:48:55;;;;;;;41.60;22.98;;;;;;;4.50;100.00;101914.72;10077910;28;20051;-70
2022/01/10 09:53:52;;;;;;;44.97;23.15;;;;;;;4.61;100.00;101924.66;10141350;28;20051;-71
2022/01/10 09:58:50;;;;;;;45.20;26.27;;;;;;;4.71;100.00;101935.66;10082683;28;20485;-72
2022/01/10 10:03:48;;;;;;;41.08;22.77;;;;;;;4.59;100.00;101951.16;10107750;28;20479;-70
2022/01/10 10:08:45;;;;;;;44.58;24.83;;;;;;;4.61;100.00;101954.44;10094709;28;20070;-70
2022/01/10 10:13:53;;;;;;;43.65;25.33;;;;;;;4.59;100.00;101973.66;10139418;28;20419;-70
2022/01/10 10:18:50;;;;;;;42.35;24.13;;;;;;;4.61;100.00;101982.34;10095255;28;20039;-70
2022/01/10 10:23:49;;;;;;;43.55;25.52;;;;;;;4.76;100.00;101998.03;10098745;28;20051;-71
2022/01/10 10:28:47;;;;;;;48.00;28.23;;;;;;;4.54;100.00;102002.56;10085618;28;20463;-70
2022/01/10 10:33:49;;;;;;;48.72;26.15;;;;;;;4.72;100.00;102010.44;10099168;28;20550;-70
2022/01/10 10:38:45;;;;;;;45.60;25.38;;;;;;;4.77;100.00;102018.63;10085580;28;20039;-71
2022/01/10 10:43:43;;;;;;;46.88;25.83;;;;;;;4.80;100.00;102023.59;10082739;28;20098;-70
2022/01/10 10:48:42;;;;;;;47.83;25.85;;;;;;;4.85;100.00;102037.22;10086660;28;20049;-70
2022/01/10 10:53:39;;;;;;;50.20;28.38;;;;;;;4.93;100.00;102043.28;10128211;28;20082;-70
2022/01/10 10:58:39;;;;;;;45.80;25.85;;;;;;;4.92;100.00;102036.19;10072301;28;20126;-70
2022/01/10 11:03:36;;;;;;;44.00;24.83;;;;;;;5.05;100.00;102041.28;10101264;28;20090;-71
2022/01/10 11:08:35;;;;;;;46.70;26.95;;;;;;;5.15;100.00;102057.72;10084324;28;20063;-70
2022/01/10 11:13:32;;;;;;;45.72;26.67;;;;;;;4.95;100.00;102062.84;10082991;28;20043;-69
2022/01/10 11:18:29;;;;;;;45.72;25.25;;;;;;;5.06;100.00;102059.22;10085277;28;20043;-70
2022/01/10 11:23:27;;;;;;;36.88;22.40;;;;;;;4.87;100.00;102071.38;10087910;28;20077;-70
2022/01/10 11:28:26;;;;;;;38.20;23.08;;;;;;;4.97;100.00;102071.53;10088397;28;20067;-69
2022/01/10 11:33:26;;;;;;;41.95;23.27;;;;;;;4.87;100.00;102082.19;10087346;28;20074;-70
2022/01/10 11:38:43;;;;;;;40.80;24.42;;;;;;;4.91;100.00;102088.78;10083512;28;20114;-70
2022/01/10 11:43:45;;;;;;;43.95;26.98;;;;;;;5.08;100.00;102092.28;10088658;28;20039;-70
2022/01/10 11:48:47;;;;;;;45.90;25.40;;;;;;;5.09;100.00;102101.28;10084194;28;20039;-71
2022/01/10 11:53:46;;;;;;;41.50;24.05;;;;;;;5.20;100.00;102098.47;10110271;28;20121;-71
2022/01/10 11:59:08;;;;;;;39.30;24.05;;;;;;;5.19;100.00;102101.44;10094839;28;20375;-71
2022/01/10 12:04:05;;;;;;;42.15;24.33;;;;;;;5.20;100.00;102109.31;10083710;28;20047;-71
2022/01/10 12:09:03;;;;;;;44.65;25.48;;;;;;;5.21;100.00;102127.22;10081458;28;20077;-71
2022/01/10 12:14:00;;;;;;;43.75;25.00;;;;;;;5.28;100.00;102138.72;10093761;28;20109;-71
2022/01/10 12:18:57;;;;;;;38.55;23.38;;;;;;;5.21;100.00;102148.91;10089146;28;20078;-71
2022/01/10 12:23:54;;;;;;;37.40;21.40;;;;;;;5.18;100.00;102159.44;10098258;28;20480;-71
2022/01/10 12:28:57;;;;;;;42.17;26.35;;;;;;;5.25;100.00;102166.34;10115132;28;20137;-70
2022/01/10 12:33:56;;;;;;;40.67;24.60;;;;;;;5.17;100.00;102168.63;10123820;28;20109;-70
2022/01/10 12:39:10;;;;;;;38.38;22.10;;;;;;;5.17;100.00;102180.28;10097389;28;20577;-70
2022/01/10 12:44:07;;;;;;;42.03;23.35;;;;;;;5.13;100.00;102184.59;10096214;28;20070;-70
2022/01/10 12:49:07;;;;;;;34.45;22.42;;;;;;;5.11;100.00;102181.28;10108297;28;20043;-72
2022/01/10 12:54:12;;;;;;;35.45;20.27;;;;;;;5.16;100.00;102203.06;10094194;28;20062;-71
2022/01/10 12:59:17;;;;;;;38.70;22.23;;;;;;;5.22;100.00;102196.66;10123769;28;20112;-71
2022/01/10 13:04:19;;;;;;;41.47;24.23;;;;;;;5.09;100.00;102215.97;10119396;28;20047;-70
2022/01/10 13:09:16;;;;;;;48.42;27.67;;;;;;;5.04;100.00;102218.59;10108594;28;20513;-70
2022/01/10 13:14:20;;;;;;;41.05;24.58;;;;;;;5.15;100.00;102225.84;10106864;28;20126;-71
2022/01/10 13:19:26;;;;;;;43.42;22.33;;;;;;;5.24;100.00;102237.94;10104657;28;20075;-70
2022/01/10 13:24:28;;;;;;;47.45;26.88;;;;;;;5.30;100.00;102248.88;10096463;28;20083;-70
2022/01/10 13:29:58;;;;;;;51.80;29.00;;;;;;;5.24;100.00;102256.06;10089893;28;20075;-70
2022/01/10 13:35:04;;;;;;;54.75;27.85;;;;;;;5.00;100.00;102269.75;10106155;28;20745;-71
2022/01/10 13:40:06;;;;;;;62.57;31.63;;;;;;;5.15;100.00;102280.06;10090570;28;20134;-70
2022/01/10 13:45:03;;;;;;;58.13;31.87;;;;;;;5.19;100.00;102286.63;10086051;28;20086;-72
2022/01/10 13:50:18;;;;;;;50.80;27.27;;;;;;;5.20;100.00;102295.59;10086534;28;20551;-70
2022/01/10 13:55:15;;;;;;;57.63;30.27;;;;;;;5.19;100.00;102302.91;10085635;28;20055;-71
2022/01/10 14:00:14;;;;;;;54.05;30.25;;;;;;;5.23;100.00;102317.63;10087039;28;20047;-71
2022/01/10 14:05:32;;;;;;;54.97;29.88;;;;;;;5.24;100.00;102332.00;10093640;28;20077;-71
2022/01/10 14:10:29;;;;;;;58.03;29.48;;;;;;;5.12;100.00;102345.59;10085195;28;20051;-69
2022/01/10 14:15:30;;;;;;;52.72;30.15;;;;;;;5.11;100.00;102349.41;10085112;28;20075;-70
2022/01/10 14:20:26;;;;;;;57.20;29.30;;;;;;;5.15;100.00;102361.41;10085119;28;20058;-70
2022/01/10 14:25:22;;;;;;;58.20;31.60;;;;;;;5.13;100.00;102374.38;10112049;28;20047;-69
2022/01/10 14:30:20;;;;;;;58.90;31.90;;;;;;;5.07;100.00;102386.19;10118474;28;20105;-72
2022/01/10 14:35:16;;;;;;;57.75;29.42;;;;;;;5.05;100.00;102388.31;10109042;28;20051;-70
2022/01/10 14:40:13;;;;;;;59.03;31.55;;;;;;;5.01;100.00;102382.56;10116003;28;20050;-70
2022/01/10 14:45:10;;;;;;;58.35;30.60;;;;;;;5.06;100.00;102395.38;10110663;28;20058;-70
2022/01/10 14:50:08;;;;;;;63.42;31.67;;;;;;;4.98;100.00;102407.41;10125462;28;20050;-70
2022/01/10 14:55:04;;;;;;;57.63;31.45;;;;;;;5.06;100.00;102417.09;10097294;28;20407;-70
2022/01/10 15:00:02;;;;;;;59.78;31.67;;;;;;;5.03;100.00;102418.34;10103841;28;20129;-70
2022/01/10 15:04:59;;;;;;;56.83;29.80;;;;;;;4.98;100.00;102425.56;10125493;28;20181;-70
2022/01/10 15:09:55;;;;;;;58.22;31.83;;;;;;;4.93;100.00;102439.03;10109641;28;20090;-72
2022/01/10 15:14:54;;;;;;;64.18;31.20;;;;;;;4.92;100.00;102454.47;10105871;28;20157;-70
2022/01/10 15:19:50;;;;;;;60.78;30.88;;;;;;;4.89;100.00;102473.06;10118258;28;20317;-71
2022/01/10 15:24:47;;;;;;;61.50;31.48;;;;;;;4.99;100.00;102479.56;10101034;28;20100;-72
2022/01/10 15:29:44;;;;;;;58.72;31.08;;;;;;;5.00;100.00;102488.50;10088450;28;20065;-70
2022/01/10 15:34:41;;;;;;;54.97;28.77;;;;;;;4.99;100.00;102495.81;10101998;28;20070;-71
2022/01/10 15:39:37;;;;;;;55.22;29.42;;;;;;;5.06;100.00;102498.41;10106081;28;20533;-69
2022/01/10 15:44:34;;;;;;;56.72;30.75;;;;;;;5.04;100.00;102505.97;10098969;28;20082;-70
2022/01/10 15:49:30;;;;;;;50.78;27.52;;;;;;;5.02;100.00;102535.19;10106153;28;20074;-70
2022/01/10 15:54:27;;;;;;;61.70;32.85;;;;;;;5.00;100.00;102531.88;10107213;28;20062;-71
2022/01/10 15:59:26;;;;;;;58.20;29.83;;;;;;;4.91;100.00;102547.66;10106661;28;20048;-70
2022/01/10 16:04:22;;;;;;;60.80;30.48;;;;;;;4.80;100.00;102549.34;10144423;28;20537;-70
2022/01/10 16:09:19;;;;;;;60.38;33.38;;;;;;;4.81;100.00;102559.09;10108116;28;20113;-70
2022/01/10 16:14:15;;;;;;;62.35;31.08;;;;;;;4.75;100.00;102564.63;10144397;28;20173;-71
2022/01/10 16:19:15;;;;;;;56.03;30.38;;;;;;;4.76;100.00;102569.81;10097280;28;20046;-70
2022/01/10 16:24:14;;;;;;;57.08;31.65;;;;;;;4.78;100.00;102581.25;10100286;28;20038;-70
2022/01/10 16:29:11;;;;;;;58.92;31.45;;;;;;;4.82;100.00;102595.97;10097522;28;20039;-70
2022/01/10 16:34:22;;;;;;;60.45;33.45;;;;;;;4.78;100.00;102605.66;10095934;28;20070;-70
2022/01/10 16:39:18;;;;;;;59.05;31.20;;;;;;;4.57;100.00;102617.00;10101188;28;20047;-70
2022/01/10 16:44:15;;;;;;;56.08;29.45;;;;;;;4.69;100.00;102626.00;10097297;28;20051;-71
2022/01/10 16:49:11;;;;;;;64.70;32.92;;;;;;;4.72;100.00;102627.44;10095948;28;20042;-70
2022/01/10 16:54:08;;;;;;;62.42;34.58;;;;;;;4.73;100.00;102635.31;10093871;28;20176;-70
2022/01/10 16:59:11;;;;;;;62.15;33.25;;;;;;;4.77;100.00;102641.91;10083778;28;20102;-70
2022/01/10 17:04:08;;;;;;;60.00;34.80;;;;;;;4.75;100.00;102649.44;10093916;28;20043;-70
2022/01/10 17:09:04;;;;;;;62.75;31.40;;;;;;;4.71;100.00;102660.97;10099270;28;20079;-70
2022/01/10 17:14:01;;;;;;;56.47;31.10;;;;;;;4.87;100.00;102673.06;10093209;28;20101;-69
2022/01/10 17:18:57;;;;;;;56.72;32.58;;;;;;;4.80;100.00;102674.00;10103519;28;20070;-69
2022/01/10 17:24:08;;;;;;;59.03;31.85;;;;;;;4.85;100.00;102676.84;10101585;28;20058;-69
2022/01/10 17:29:05;;;;;;;56.95;30.55;;;;;;;4.86;100.00;102677.66;10092589;28;20043;-69
2022/01/10 17:34:03;;;;;;;56.08;30.27;;;;;;;4.75;100.00;102695.53;10093734;28;20058;-69
2022/01/10 17:39:00;;;;;;;56.65;30.98;;;;;;;4.81;100.00;102697.31;10084209;28;20051;-69
2022/01/10 17:43:58;;;;;;;58.85;33.40;;;;;;;4.77;100.00;102690.69;10080052;28;20059;-69
2022/01/10 17:49:01;;;;;;;58.67;32.25;;;;;;;4.76;100.00;102699.91;10078264;28;20079;-69
2022/01/10 17:54:18;;;;;;;59.63;32.08;;;;;;;4.72;100.00;102704.13;10091991;28;20619;-70
2022/01/10 17:59:15;;;;;;;61.05;33.78;;;;;;;4.78;100.00;102721.34;10084534;28;20067;-69
2022/01/10 18:04:11;;;;;;;56.33;30.98;;;;;;;4.76;100.00;102728.91;10079666;28;20720;-73
2022/01/10 18:09:08;;;;;;;57.67;30.38;;;;;;;4.80;100.00;102733.63;10077475;28;20138;-73
2022/01/10 18:14:06;;;;;;;56.53;30.30;;;;;;;4.80;100.00;102733.63;10085400;28;20058;-73
2022/01/10 18:19:02;;;;;;;54.08;30.50;;;;;;;4.87;100.00;102743.53;10084754;28;20046;-69
2022/01/10 18:23:59;;;;;;;58.03;30.85;;;;;;;4.87;100.00;102748.94;10091319;28;20130;-69
2022/01/10 18:28:55;;;;;;;60.67;31.38;;;;;;;4.89;100.00;102753.09;10087823;28;20051;-69
2022/01/10 18:33:52;;;;;;;56.72;31.23;;;;;;;4.88;100.00;102766.88;10080173;28;20109;-69
2022/01/10 18:38:50;;;;;;;55.80;30.60;;;;;;;4.85;100.00;102771.72;10079905;28;20043;-73
2022/01/10 18:43:47;;;;;;;57.85;29.33;;;;;;;4.82;100.00;102780.28;10107823;28;20509;-73
2022/01/10 18:48:44;;;;;;;52.42;28.30;;;;;;;4.89;100.00;102774.78;10109735;28;20047;-72
2022/01/10 18:53:41;;;;;;;55.33;29.05;;;;;;;4.87;100.00;102779.59;10100650;28;20074;-73
2022/01/10 18:58:37;;;;;;;53.42;29.42;;;;;;;4.90;100.00;102781.00;10089098;28;20534;-73
2022/01/10 19:03:35;;;;;;;53.03;27.90;;;;;;;4.95;100.00;102786.59;10139667;28;20047;-73
2022/01/10 19:08:32;;;;;;;59.17;28.85;;;;;;;4.84;100.00;102799.84;10110553;28;20553;-73
2022/01/10 19:13:28;;;;;;;49.83;26.65;;;;;;;4.90;100.00;102808.13;10109644;28;20478;-73
2022/01/10 19:18:25;;;;;;;45.03;23.67;;;;;;;4.75;100.00;102801.22;10113458;28;20054;-73
2022/01/10 19:23:23;;;;;;;48.28;25.98;;;;;;;4.78;100.00;102803.50;10130225;28;20047;-73
2022/01/10 19:28:19;;;;;;;49.22;24.33;;;;;;;4.72;100.00;102807.09;10117188;28;20038;-73
2022/01/10 19:33:17;;;;;;;52.40;27.83;;;;;;;4.64;100.00;102812.81;10105623;28;20598;-73
2022/01/10 19:38:14;;;;;;;49.83;25.60;;;;;;;4.61;100.00;102821.41;10102533;28;20042;-73
2022/01/10 19:43:11;;;;;;;50.13;25.90;;;;;;;4.59;100.00;102835.16;10102952;28;20134;-72
2022/01/10 19:48:09;;;;;;;49.75;26.23;;;;;;;4.63;100.00;102841.78;10114519;28;20059;-73
2022/01/10 19:53:06;;;;;;;51.30;27.38;;;;;;;4.67;100.00;102844.91;10134071;28;20063;-72
2022/01/10 19:58:03;;;;;;;50.47;26.10;;;;;;;4.65;100.00;102849.72;10100927;28;20763;-72
2022/01/10 20:02:59;;;;;;;55.35;27.52;;;;;;;4.64;100.00;102853.47;10111752;28;20051;-73
2022/01/10 20:07:56;;;;;;;54.08;27.75;;;;;;;4.66;100.00;102858.66;10084208;28;20129;-72
2022/01/10 20:12:52;;;;;;;51.58;24.45;;;;;;;4.62;100.00;102866.44;10115059;28;20127;-72
2022/01/10 20:17:49;;;;;;;54.55;24.10;;;;;;;4.52;100.00;102879.66;10097808;28;20124;-72
2022/01/10 20:22:46;;;;;;;46.95;24.92;;;;;;;4.70;100.00;102879.66;10104384;28;20667;-67
2022/01/10 20:27:42;;;;;;;46.47;24.67;;;;;;;4.71;100.00;102883.19;10094315;28;20046;-67
2022/01/10 20:32:39;;;;;;;43.70;22.05;;;;;;;4.74;100.00;102891.72;10083911;28;20093;-66
2022/01/10 20:37:36;;;;;;;44.38;22.42;;;;;;;4.75;100.00;102901.50;10093041;28;20039;-68
2022/01/10 20:42:33;;;;;;;52.25;25.15;;;;;;;4.71;100.00;102908.44;10132008;28;20125;-69
2022/01/10 20:47:29;;;;;;;44.75;22.27;;;;;;;4.68;100.00;102914.28;10085753;28;20046;-70
2022/01/10 20:52:27;;;;;;;42.45;23.52;;;;;;;4.71;100.00;102911.16;10090271;28;20047;-68
2022/01/10 20:57:24;;;;;;;51.45;26.50;;;;;;;4.72;100.00;102915.50;10089974;28;20047;-71
2022/01/10 21:02:20;;;;;;;42.53;23.10;;;;;;;4.65;100.00;102925.59;10096712;28;20078;-68
2022/01/10 21:07:17;;;;;;;44.90;23.02;;;;;;;4.72;100.00;102931.75;10085846;28;20065;-69
2022/01/10 21:12:14;;;;;;;41.75;22.48;;;;;;;4.71;100.00;102935.53;10090223;28;20043;-69
2022/01/10 21:17:11;;;;;;;41.78;22.48;;;;;;;4.73;100.00;102941.53;10097043;28;20043;-67
2022/01/10 21:22:08;;;;;;;42.08;22.15;;;;;;;4.73;100.00;102954.25;10091905;28;20054;-68
2022/01/10 21:27:05;;;;;;;44.40;23.38;;;;;;;4.73;100.00;102955.09;10097462;28;20055;-69
2022/01/10 21:32:02;;;;;;;47.65;23.77;;;;;;;4.75;100.00;102958.41;10107866;28;20557;-68
2022/01/10 21:36:59;;;;;;;44.35;21.92;;;;;;;4.71;100.00;102956.38;10111258;28;20464;-68
2022/01/10 21:41:55;;;;;;;43.55;24.55;;;;;;;4.78;100.00;102966.09;10113933;28;20502;-68
2022/01/10 21:46:52;;;;;;;41.55;21.25;;;;;;;4.76;100.00;102964.69;10101237;28;20492;-70
2022/01/10 21:51:48;;;;;;;45.15;23.33;;;;;;;4.77;100.00;102971.75;10094106;28;20499;-70
2022/01/10 21:56:45;;;;;;;43.05;23.33;;;;;;;4.74;100.00;102973.03;10096164;28;20109;-70
2022/01/10 22:02:02;;;;;;;42.58;23.08;;;;;;;4.75;100.00;102984.69;10089945;28;20134;-70
2022/01/10 22:07:00;;;;;;;43.25;21.65;;;;;;;4.80;100.00;102982.97;10093182;28;20047;-69
2022/01/10 22:11:56;;;;;;;42.72;21.80;;;;;;;4.79;100.00;102981.31;10095037;28;20734;-70
2022/01/10 22:16:53;;;;;;;41.05;21.55;;;;;;;4.62;100.00;102980.22;10117616;28;20089;-70
2022/01/10 22:21:50;;;;;;;48.55;23.52;;;;;;;4.67;100.00;102993.94;10110483;28;20086;-70
2022/01/10 22:26:47;;;;;;;38.60;21.13;;;;;;;4.77;100.00;102983.41;10129346;28;20093;-69
2022/01/10 22:31:43;;;;;;;43.45;21.50;;;;;;;4.72;100.00;102985.97;10101721;28;20128;-69
2022/01/10 22:36:40;;;;;;;36.80;20.27;;;;;;;4.70;100.00;102998.09;10117146;28;20073;-70